ADDS METAR Data INFO
IDs: Format: Raw Decoded Include TAF

Data at: 0752 UTC 20 Feb 2018

METAR for:KTVY (Tooele Valley Arpt, UT, US)
Text:KTVY 200735Z AUTO 00000KT 10SM SCT070 M11/M13 A2986 RMK AO2
Temperature:-11.0°C ( 12°F)
Dewpoint:-13.0°C ( 9°F) [RH = 85%]
Pressure (altimeter):29.86 inches Hg (1011.3 mb)
Winds:calm
Visibility:10 or more sm (16+ km)
Ceiling:at least 12,000 feet AGL
Clouds: scattered clouds at 7000 feet AGL
QC Flag:automated observation with no human augmentation
Text:KTVY 200715Z AUTO 00000KT 10SM SCT030 M08/M10 A2986 RMK AO2
Temperature: -8.0°C ( 18°F)
Dewpoint:-10.0°C ( 14°F) [RH = 85%]
Pressure (altimeter):29.86 inches Hg (1011.3 mb)
Winds:calm
Visibility:10 or more sm (16+ km)
Ceiling:at least 12,000 feet AGL
Clouds: scattered clouds at 3000 feet AGL
QC Flag:automated observation with no human augmentation
Text:KTVY 200655Z AUTO 16003KT 10SM OVC032 M08/M10 A2985 RMK AO2
Temperature: -8.0°C ( 18°F)
Dewpoint:-10.0°C ( 14°F) [RH = 85%]
Pressure (altimeter):29.85 inches Hg (1010.9 mb)
Winds:from the SSE (160 degrees) at 3 MPH (3 knots; 1.5 m/s)
Visibility:10 or more sm (16+ km)
Ceiling:3200 feet AGL
Clouds: overcast cloud deck at 3200 feet AGL
QC Flag:automated observation with no human augmentation
Text:KTVY 200635Z AUTO 18005KT 10SM OVC036 M10/M11 A2984 RMK AO2
Temperature:-10.0°C ( 14°F)
Dewpoint:-11.0°C ( 12°F) [RH = 92%]
Pressure (altimeter):29.84 inches Hg (1010.6 mb)
Winds:from the S (180 degrees) at 6 MPH (5 knots; 2.6 m/s)
Visibility:10 or more sm (16+ km)
Ceiling:3600 feet AGL
Clouds: overcast cloud deck at 3600 feet AGL
QC Flag:automated observation with no human augmentation
Text:KTVY 200615Z AUTO 15004KT 10SM SCT036 SCT065 M11/M11 A2982 RMK AO2
Temperature:-11.0°C ( 12°F)
Dewpoint:-11.0°C ( 12°F) [RH = 100%]
Pressure (altimeter):29.82 inches Hg (1009.9 mb)
Winds:from the SSE (150 degrees) at 5 MPH (4 knots; 2.1 m/s)
Visibility:10 or more sm (16+ km)
Ceiling:at least 12,000 feet AGL
Clouds: scattered clouds at 3600 feet AGL, scattered clouds at 6500 feet AGL
QC Flag:automated observation with no human augmentation
Text:KTVY 200555Z AUTO 14004KT 10SM SCT032 BKN041 BKN100 M09/M10 A2981 RMK AO2
Temperature: -9.0°C ( 16°F)
Dewpoint:-10.0°C ( 14°F) [RH = 92%]
Pressure (altimeter):29.81 inches Hg (1009.6 mb)
Winds:from the SE (140 degrees) at 5 MPH (4 knots; 2.1 m/s)
Visibility:10 or more sm (16+ km)
Ceiling:4100 feet AGL
Clouds: scattered clouds at 3200 feet AGL, broken clouds at 4100 feet AGL, broken clouds at 10000 feet AGL
QC Flag:automated observation with no human augmentation
Text:KTVY 200535Z AUTO 13005KT 10SM SCT032 BKN041 M12/M12 A2981 RMK AO2
Temperature:-12.0°C ( 10°F)
Dewpoint:-12.0°C ( 10°F) [RH = 100%]
Pressure (altimeter):29.81 inches Hg (1009.6 mb)
Winds:from the SE (130 degrees) at 6 MPH (5 knots; 2.6 m/s)
Visibility:10 or more sm (16+ km)
Ceiling:4100 feet AGL
Clouds: scattered clouds at 3200 feet AGL, broken clouds at 4100 feet AGL
QC Flag:automated observation with no human augmentation
Text:KTVY 200515Z AUTO 15003KT 10SM CLR M10/M10 A2980 RMK AO2
Temperature:-10.0°C ( 14°F)
Dewpoint:-10.0°C ( 14°F) [RH = 100%]
Pressure (altimeter):29.80 inches Hg (1009.2 mb)
Winds:from the SSE (150 degrees) at 3 MPH (3 knots; 1.5 m/s)
Visibility:10 or more sm (16+ km)
Ceiling:at least 12,000 feet AGL
Clouds:sky clear below 12,000 feet AGL
QC Flag:automated observation with no human augmentation
Text:KTVY 200455Z AUTO 15005KT 10SM CLR M09/M11 A2979 RMK AO2
Temperature: -9.0°C ( 16°F)
Dewpoint:-11.0°C ( 12°F) [RH = 85%]
Pressure (altimeter):29.79 inches Hg (1008.9 mb)
Winds:from the SSE (150 degrees) at 6 MPH (5 knots; 2.6 m/s)
Visibility:10 or more sm (16+ km)
Ceiling:at least 12,000 feet AGL
Clouds:sky clear below 12,000 feet AGL
QC Flag:automated observation with no human augmentation
Text:KTVY 200435Z AUTO 16003KT 10SM SCT039 SCT050 M07/M08 A2978 RMK AO2
Temperature: -7.0°C ( 19°F)
Dewpoint: -8.0°C ( 18°F) [RH = 93%]
Pressure (altimeter):29.78 inches Hg (1008.5 mb)
Winds:from the SSE (160 degrees) at 3 MPH (3 knots; 1.5 m/s)
Visibility:10 or more sm (16+ km)
Ceiling:at least 12,000 feet AGL
Clouds: scattered clouds at 3900 feet AGL, scattered clouds at 5000 feet AGL
QC Flag:automated observation with no human augmentation
Text:KTVY 200415Z AUTO 21003KT 10SM SCT041 OVC050 M06/M08 A2978 RMK AO2
Temperature: -6.0°C ( 21°F)
Dewpoint: -8.0°C ( 18°F) [RH = 86%]
Pressure (altimeter):29.78 inches Hg (1008.5 mb)
Winds:from the SSW (210 degrees) at 3 MPH (3 knots; 1.5 m/s)
Visibility:10 or more sm (16+ km)
Ceiling:5000 feet AGL
Clouds: scattered clouds at 4100 feet AGL, overcast cloud deck at 5000 feet AGL
QC Flag:automated observation with no human augmentation
Text:KTVY 200355Z AUTO 18005KT 10SM -SN SCT030 BKN048 OVC065 M06/M07 A2976 RMK AO2
Temperature: -6.0°C ( 21°F)
Dewpoint: -7.0°C ( 19°F) [RH = 93%]
Pressure (altimeter):29.76 inches Hg (1007.9 mb)
Winds:from the S (180 degrees) at 6 MPH (5 knots; 2.6 m/s)
Visibility:10 or more sm (16+ km)
Ceiling:4800 feet AGL
Clouds: scattered clouds at 3000 feet AGL, broken clouds at 4800 feet AGL, overcast cloud deck at 6500 feet AGL
Weather:-SN (light snow)
QC Flag:automated observation with no human augmentation
Text:KTVY 200335Z AUTO 20006KT 10SM OVC065 M06/M07 A2975 RMK AO2
Temperature: -6.0°C ( 21°F)
Dewpoint: -7.0°C ( 19°F) [RH = 93%]
Pressure (altimeter):29.75 inches Hg (1007.5 mb)
Winds:from the SSW (200 degrees) at 7 MPH (6 knots; 3.1 m/s)
Visibility:10 or more sm (16+ km)
Ceiling:6500 feet AGL
Clouds: overcast cloud deck at 6500 feet AGL
QC Flag:automated observation with no human augmentation
Text:KTVY 200315Z AUTO 20006KT 10SM OVC065 M06/M07 A2974 RMK AO2
Temperature: -6.0°C ( 21°F)
Dewpoint: -7.0°C ( 19°F) [RH = 93%]
Pressure (altimeter):29.74 inches Hg (1007.2 mb)
Winds:from the SSW (200 degrees) at 7 MPH (6 knots; 3.1 m/s)
Visibility:10 or more sm (16+ km)
Ceiling:6500 feet AGL
Clouds: overcast cloud deck at 6500 feet AGL
QC Flag:automated observation with no human augmentation
Text:KTVY 200255Z AUTO 21005KT 10SM SCT047 BKN055 OVC070 M06/M06 A2974 RMK AO2
Temperature: -6.0°C ( 21°F)
Dewpoint: -6.0°C ( 21°F) [RH = 100%]
Pressure (altimeter):29.74 inches Hg (1007.2 mb)
Winds:from the SSW (210 degrees) at 6 MPH (5 knots; 2.6 m/s)
Visibility:10 or more sm (16+ km)
Ceiling:5500 feet AGL
Clouds: scattered clouds at 4700 feet AGL, broken clouds at 5500 feet AGL, overcast cloud deck at 7000 feet AGL
QC Flag:automated observation with no human augmentation